sensor_id;sensor_type;location;lat;lon;timestamp;temperature;humidity
53520;DHT22;39397;53.204;5.778;2024-01-30T00:01:53;6.10;99.90
53520;DHT22;39397;53.204;5.778;2024-01-30T00:04:19;7.60;99.90
53520;DHT22;39397;53.204;5.778;2024-01-30T00:06:45;6.20;99.90
53520;DHT22;39397;53.204;5.778;2024-01-30T00:09:11;6.00;99.90
53520;DHT22;39397;53.204;5.778;2024-01-30T00:11:40;6.00;99.90
53520;DHT22;39397;53.204;5.778;2024-01-30T00:14:05;6.00;99.90
53520;DHT22;39397;53.204;5.778;2024-01-30T00:16:31;6.10;99.90
53520;DHT22;39397;53.204;5.778;2024-01-30T00:18:57;6.10;99.90
53520;DHT22;39397;53.204;5.778;2024-01-30T00:21:23;6.70;99.90
53520;DHT22;39397;53.204;5.778;2024-01-30T00:23:49;7.40;99.90
53520;DHT22;39397;53.204;5.778;2024-01-30T00:26:15;7.50;99.90
53520;DHT22;39397;53.204;5.778;2024-01-30T00:28:44;8.10;99.90
53520;DHT22;39397;53.204;5.778;2024-01-30T00:31:10;7.70;99.90
53520;DHT22;39397;53.204;5.778;2024-01-30T00:33:39;6.50;99.90
53520;DHT22;39397;53.204;5.778;2024-01-30T00:36:05;6.20;99.90
53520;DHT22;39397;53.204;5.778;2024-01-30T00:38:32;6.10;99.90
53520;DHT22;39397;53.204;5.778;2024-01-30T00:40:58;7.70;99.90
53520;DHT22;39397;53.204;5.778;2024-01-30T00:43:24;6.70;99.90
53520;DHT22;39397;53.204;5.778;2024-01-30T00:45:51;7.20;99.90
53520;DHT22;39397;53.204;5.778;2024-01-30T00:48:18;6.00;99.90
53520;DHT22;39397;53.204;5.778;2024-01-30T00:50:43;6.00;99.90
53520;DHT22;39397;53.204;5.778;2024-01-30T00:53:09;6.00;99.90
53520;DHT22;39397;53.204;5.778;2024-01-30T00:55:35;6.60;99.90
53520;DHT22;39397;53.204;5.778;2024-01-30T00:58:01;6.10;99.90
53520;DHT22;39397;53.204;5.778;2024-01-30T01:00:27;5.90;99.90
53520;DHT22;39397;53.204;5.778;2024-01-30T01:02:58;6.90;99.90
53520;DHT22;39397;53.204;5.778;2024-01-30T01:05:24;6.00;99.90
53520;DHT22;39397;53.204;5.778;2024-01-30T01:07:50;6.00;99.90
53520;DHT22;39397;53.204;5.778;2024-01-30T01:10:17;6.90;99.90
53520;DHT22;39397;53.204;5.778;2024-01-30T01:12:44;7.30;99.90
53520;DHT22;39397;53.204;5.778;2024-01-30T01:15:10;7.30;99.90
53520;DHT22;39397;53.204;5.778;2024-01-30T01:17:39;7.10;99.90
53520;DHT22;39397;53.204;5.778;2024-01-30T01:20:06;6.70;99.90
53520;DHT22;39397;53.204;5.778;2024-01-30T01:22:32;5.80;99.90
53520;DHT22;39397;53.204;5.778;2024-01-30T01:24:59;6.50;99.90
53520;DHT22;39397;53.204;5.778;2024-01-30T01:27:25;6.90;99.90
53520;DHT22;39397;53.204;5.778;2024-01-30T01:29:51;5.90;99.90
53520;DHT22;39397;53.204;5.778;2024-01-30T01:32:17;6.00;99.90
53520;DHT22;39397;53.204;5.778;2024-01-30T01:34:43;6.80;99.90
53520;DHT22;39397;53.204;5.778;2024-01-30T01:37:09;6.40;99.90
53520;DHT22;39397;53.204;5.778;2024-01-30T01:39:34;6.60;99.90
53520;DHT22;39397;53.204;5.778;2024-01-30T01:42:00;6.50;99.90
53520;DHT22;39397;53.204;5.778;2024-01-30T01:44:27;7.00;99.90
53520;DHT22;39397;53.204;5.778;2024-01-30T01:46:54;7.00;99.90
53520;DHT22;39397;53.204;5.778;2024-01-30T01:49:20;6.20;99.90
53520;DHT22;39397;53.204;5.778;2024-01-30T01:51:47;7.60;99.90
53520;DHT22;39397;53.204;5.778;2024-01-30T01:54:14;6.30;99.90
53520;DHT22;39397;53.204;5.778;2024-01-30T01:56:42;6.20;99.90
53520;DHT22;39397;53.204;5.778;2024-01-30T01:59:08;6.30;99.90
53520;DHT22;39397;53.204;5.778;2024-01-30T02:01:36;6.30;99.90
53520;DHT22;39397;53.204;5.778;2024-01-30T02:04:03;7.30;99.90
53520;DHT22;39397;53.204;5.778;2024-01-30T02:06:29;6.40;99.90
53520;DHT22;39397;53.204;5.778;2024-01-30T02:08:55;6.90;99.90
53520;DHT22;39397;53.204;5.778;2024-01-30T02:11:22;6.70;99.90
53520;DHT22;39397;53.204;5.778;2024-01-30T02:13:48;6.30;99.90
53520;DHT22;39397;53.204;5.778;2024-01-30T02:16:14;6.90;99.90
53520;DHT22;39397;53.204;5.778;2024-01-30T02:18:40;7.40;99.90
53520;DHT22;39397;53.204;5.778;2024-01-30T02:21:11;7.70;99.90
53520;DHT22;39397;53.204;5.778;2024-01-30T02:23:38;6.20;99.90
53520;DHT22;39397;53.204;5.778;2024-01-30T02:26:05;6.20;99.90
53520;DHT22;39397;53.204;5.778;2024-01-30T02:28:33;7.00;99.90
53520;DHT22;39397;53.204;5.778;2024-01-30T02:30:59;7.80;99.90
53520;DHT22;39397;53.204;5.778;2024-01-30T02:33:25;6.30;99.90
53520;DHT22;39397;53.204;5.778;2024-01-30T02:35:50;7.40;99.90
53520;DHT22;39397;53.204;5.778;2024-01-30T02:38:16;6.40;99.90
53520;DHT22;39397;53.204;5.778;2024-01-30T02:40:42;6.30;99.90
53520;DHT22;39397;53.204;5.778;2024-01-30T02:43:07;6.90;99.90
53520;DHT22;39397;53.204;5.778;2024-01-30T02:45:33;7.40;99.90
53520;DHT22;39397;53.204;5.778;2024-01-30T02:47:59;6.30;99.90
53520;DHT22;39397;53.204;5.778;2024-01-30T02:50:25;6.60;99.90
53520;DHT22;39397;53.204;5.778;2024-01-30T02:52:50;6.30;99.90
53520;DHT22;39397;53.204;5.778;2024-01-30T02:55:16;7.70;99.90
53520;DHT22;39397;53.204;5.778;2024-01-30T02:57:45;5.70;99.90
53520;DHT22;39397;53.204;5.778;2024-01-30T03:00:11;6.40;99.90
53520;DHT22;39397;53.204;5.778;2024-01-30T03:02:37;6.30;99.90
53520;DHT22;39397;53.204;5.778;2024-01-30T03:05:03;7.90;99.90
53520;DHT22;39397;53.204;5.778;2024-01-30T03:07:29;6.40;99.90
53520;DHT22;39397;53.204;5.778;2024-01-30T03:09:55;6.20;99.90
53520;DHT22;39397;53.204;5.778;2024-01-30T03:12:21;6.30;99.90
53520;DHT22;39397;53.204;5.778;2024-01-30T03:14:47;6.40;99.90
53520;DHT22;39397;53.204;5.778;2024-01-30T03:17:13;6.20;99.90
53520;DHT22;39397;53.204;5.778;2024-01-30T03:19:39;7.20;99.90
53520;DHT22;39397;53.204;5.778;2024-01-30T03:22:05;6.20;99.90
53520;DHT22;39397;53.204;5.778;2024-01-30T03:24:30;7.40;99.90
53520;DHT22;39397;53.204;5.778;2024-01-30T03:26:56;6.30;99.90
53520;DHT22;39397;53.204;5.778;2024-01-30T03:29:22;6.40;99.90
53520;DHT22;39397;53.204;5.778;2024-01-30T03:31:47;7.40;99.90
53520;DHT22;39397;53.204;5.778;2024-01-30T03:34:13;6.10;99.90
53520;DHT22;39397;53.204;5.778;2024-01-30T03:36:39;7.90;99.90
53520;DHT22;39397;53.204;5.778;2024-01-30T03:39:05;6.30;99.90
53520;DHT22;39397;53.204;5.778;2024-01-30T03:41:31;7.40;99.90
53520;DHT22;39397;53.204;5.778;2024-01-30T03:43:58;6.30;99.90
53520;DHT22;39397;53.204;5.778;2024-01-30T03:46:24;6.30;99.90
53520;DHT22;39397;53.204;5.778;2024-01-30T03:48:50;7.10;99.90
53520;DHT22;39397;53.204;5.778;2024-01-30T03:51:15;7.50;99.90
53520;DHT22;39397;53.204;5.778;2024-01-30T03:53:42;6.80;99.90
53520;DHT22;39397;53.204;5.778;2024-01-30T03:56:08;6.30;99.90
53520;DHT22;39397;53.204;5.778;2024-01-30T03:58:35;6.40;99.90
53520;DHT22;39397;53.204;5.778;2024-01-30T04:01:00;7.30;99.90
53520;DHT22;39397;53.204;5.778;2024-01-30T04:03:26;7.90;99.90
53520;DHT22;39397;53.204;5.778;2024-01-30T04:05:52;6.40;99.90
53520;DHT22;39397;53.204;5.778;2024-01-30T04:08:19;6.60;99.90
53520;DHT22;39397;53.204;5.778;2024-01-30T04:10:44;6.40;99.90
53520;DHT22;39397;53.204;5.778;2024-01-30T04:13:10;8.20;99.90
53520;DHT22;39397;53.204;5.778;2024-01-30T04:15:36;8.00;99.90
53520;DHT22;39397;53.204;5.778;2024-01-30T04:18:02;6.40;99.90
53520;DHT22;39397;53.204;5.778;2024-01-30T04:20:28;6.50;99.90
53520;DHT22;39397;53.204;5.778;2024-01-30T04:22:54;7.30;99.90
53520;DHT22;39397;53.204;5.778;2024-01-30T04:25:20;6.60;99.90
53520;DHT22;39397;53.204;5.778;2024-01-30T04:27:46;7.00;99.90
53520;DHT22;39397;53.204;5.778;2024-01-30T04:30:11;6.60;99.90
53520;DHT22;39397;53.204;5.778;2024-01-30T04:32:37;6.60;99.90
53520;DHT22;39397;53.204;5.778;2024-01-30T04:35:03;7.20;99.90
53520;DHT22;39397;53.204;5.778;2024-01-30T04:37:29;6.50;99.90
53520;DHT22;39397;53.204;5.778;2024-01-30T04:39:55;7.40;99.90
53520;DHT22;39397;53.204;5.778;2024-01-30T04:42:21;6.60;99.90
53520;DHT22;39397;53.204;5.778;2024-01-30T04:44:46;6.70;99.90
53520;DHT22;39397;53.204;5.778;2024-01-30T04:47:12;7.60;99.90
53520;DHT22;39397;53.204;5.778;2024-01-30T04:49:39;6.60;99.90
53520;DHT22;39397;53.204;5.778;2024-01-30T04:52:06;6.70;99.90
53520;DHT22;39397;53.204;5.778;2024-01-30T04:54:32;8.20;99.90
53520;DHT22;39397;53.204;5.778;2024-01-30T04:56:58;6.90;99.90
53520;DHT22;39397;53.204;5.778;2024-01-30T04:59:24;6.70;99.90
53520;DHT22;39397;53.204;5.778;2024-01-30T05:01:50;7.30;99.90
53520;DHT22;39397;53.204;5.778;2024-01-30T05:04:15;6.60;99.90
53520;DHT22;39397;53.204;5.778;2024-01-30T05:06:41;7.00;99.90
53520;DHT22;39397;53.204;5.778;2024-01-30T05:09:07;7.80;99.90
53520;DHT22;39397;53.204;5.778;2024-01-30T05:11:41;7.20;99.90
53520;DHT22;39397;53.204;5.778;2024-01-30T05:14:07;7.60;99.90
53520;DHT22;39397;53.204;5.778;2024-01-30T05:16:34;6.60;99.90
53520;DHT22;39397;53.204;5.778;2024-01-30T05:18:59;6.80;99.90
53520;DHT22;39397;53.204;5.778;2024-01-30T05:21:25;6.70;99.90
53520;DHT22;39397;53.204;5.778;2024-01-30T05:23:51;7.30;99.90
53520;DHT22;39397;53.204;5.778;2024-01-30T05:26:17;8.00;99.90
53520;DHT22;39397;53.204;5.778;2024-01-30T05:28:43;6.90;99.90
53520;DHT22;39397;53.204;5.778;2024-01-30T05:31:11;9.10;99.90
53520;DHT22;39397;53.204;5.778;2024-01-30T05:33:37;8.30;99.90
53520;DHT22;39397;53.204;5.778;2024-01-30T05:36:03;6.80;99.90
53520;DHT22;39397;53.204;5.778;2024-01-30T05:38:29;6.90;99.90
53520;DHT22;39397;53.204;5.778;2024-01-30T05:40:55;6.70;99.90
53520;DHT22;39397;53.204;5.778;2024-01-30T05:43:24;6.40;99.90
53520;DHT22;39397;53.204;5.778;2024-01-30T05:45:49;8.50;99.90
53520;DHT22;39397;53.204;5.778;2024-01-30T05:48:15;7.00;99.90
53520;DHT22;39397;53.204;5.778;2024-01-30T05:50:41;7.20;99.90
53520;DHT22;39397;53.204;5.778;2024-01-30T05:53:07;8.70;99.90
53520;DHT22;39397;53.204;5.778;2024-01-30T05:55:33;8.20;99.90
53520;DHT22;39397;53.204;5.778;2024-01-30T05:57:58;6.90;99.90
53520;DHT22;39397;53.204;5.778;2024-01-30T06:00:24;6.50;99.90
53520;DHT22;39397;53.204;5.778;2024-01-30T06:02:50;7.20;99.90
53520;DHT22;39397;53.204;5.778;2024-01-30T06:05:16;7.00;99.90
53520;DHT22;39397;53.204;5.778;2024-01-30T06:07:42;7.20;99.90
53520;DHT22;39397;53.204;5.778;2024-01-30T06:10:08;7.60;99.90
53520;DHT22;39397;53.204;5.778;2024-01-30T06:12:38;7.00;99.90
53520;DHT22;39397;53.204;5.778;2024-01-30T06:15:04;5.30;99.90
53520;DHT22;39397;53.204;5.778;2024-01-30T06:17:30;7.30;99.90
53520;DHT22;39397;53.204;5.778;2024-01-30T06:19:56;7.20;99.90
53520;DHT22;39397;53.204;5.778;2024-01-30T06:22:22;5.30;99.90
53520;DHT22;39397;53.204;5.778;2024-01-30T06:24:48;7.30;99.90
53520;DHT22;39397;53.204;5.778;2024-01-30T06:27:14;7.10;99.90
53520;DHT22;39397;53.204;5.778;2024-01-30T06:29:43;7.40;99.90
53520;DHT22;39397;53.204;5.778;2024-01-30T06:32:10;7.50;99.90
53520;DHT22;39397;53.204;5.778;2024-01-30T06:34:36;7.30;99.90
53520;DHT22;39397;53.204;5.778;2024-01-30T06:37:04;8.30;99.90
53520;DHT22;39397;53.204;5.778;2024-01-30T06:39:30;6.00;99.90
53520;DHT22;39397;53.204;5.778;2024-01-30T06:41:56;7.80;99.90
53520;DHT22;39397;53.204;5.778;2024-01-30T06:44:21;7.20;99.90
53520;DHT22;39397;53.204;5.778;2024-01-30T06:46:47;5.60;99.90
53520;DHT22;39397;53.204;5.778;2024-01-30T06:49:13;7.50;99.90
53520;DHT22;39397;53.204;5.778;2024-01-30T06:51:39;7.60;99.90
53520;DHT22;39397;53.204;5.778;2024-01-30T06:54:05;7.50;99.90
53520;DHT22;39397;53.204;5.778;2024-01-30T06:56:30;7.70;99.90
53520;DHT22;39397;53.204;5.778;2024-01-30T06:58:56;8.00;99.90
53520;DHT22;39397;53.204;5.778;2024-01-30T07:01:28;8.40;99.90
53520;DHT22;39397;53.204;5.778;2024-01-30T07:03:58;5.80;99.90
53520;DHT22;39397;53.204;5.778;2024-01-30T07:06:24;8.00;99.90
53520;DHT22;39397;53.204;5.778;2024-01-30T07:08:50;8.10;99.90
53520;DHT22;39397;53.204;5.778;2024-01-30T07:11:22;7.90;99.90
53520;DHT22;39397;53.204;5.778;2024-01-30T07:13:50;7.30;99.90
53520;DHT22;39397;53.204;5.778;2024-01-30T07:16:16;8.00;99.90
53520;DHT22;39397;53.204;5.778;2024-01-30T07:18:43;8.10;99.90
53520;DHT22;39397;53.204;5.778;2024-01-30T07:21:09;9.60;99.90
53520;DHT22;39397;53.204;5.778;2024-01-30T07:23:35;8.20;99.90
53520;DHT22;39397;53.204;5.778;2024-01-30T07:26:07;7.40;99.90
53520;DHT22;39397;53.204;5.778;2024-01-30T07:28:34;7.30;99.90
53520;DHT22;39397;53.204;5.778;2024-01-30T07:31:00;7.50;99.90
53520;DHT22;39397;53.204;5.778;2024-01-30T07:33:26;7.30;99.90
53520;DHT22;39397;53.204;5.778;2024-01-30T07:35:55;8.60;99.90
53520;DHT22;39397;53.204;5.778;2024-01-30T07:38:20;7.80;99.90
53520;DHT22;39397;53.204;5.778;2024-01-30T07:40:46;7.50;99.90
53520;DHT22;39397;53.204;5.778;2024-01-30T07:43:12;7.30;99.90
53520;DHT22;39397;53.204;5.778;2024-01-30T07:45:38;7.40;99.90
53520;DHT22;39397;53.204;5.778;2024-01-30T07:48:07;7.30;99.90
53520;DHT22;39397;53.204;5.778;2024-01-30T07:50:33;7.60;99.90
53520;DHT22;39397;53.204;5.778;2024-01-30T07:53:00;8.70;99.90
53520;DHT22;39397;53.204;5.778;2024-01-30T07:55:26;7.50;99.90
53520;DHT22;39397;53.204;5.778;2024-01-30T07:57:56;7.50;99.90
53520;DHT22;39397;53.204;5.778;2024-01-30T08:00:22;7.60;99.90
53520;DHT22;39397;53.204;5.778;2024-01-30T08:02:48;9.40;99.90
53520;DHT22;39397;53.204;5.778;2024-01-30T08:05:14;9.20;99.90
53520;DHT22;39397;53.204;5.778;2024-01-30T08:07:43;7.80;99.90
53520;DHT22;39397;53.204;5.778;2024-01-30T08:10:10;8.00;99.90
53520;DHT22;39397;53.204;5.778;2024-01-30T08:12:36;8.00;99.90
53520;DHT22;39397;53.204;5.778;2024-01-30T08:15:02;8.30;99.90
53520;DHT22;39397;53.204;5.778;2024-01-30T08:17:28;8.30;99.90
53520;DHT22;39397;53.204;5.778;2024-01-30T08:19:54;9.40;99.90
53520;DHT22;39397;53.204;5.778;2024-01-30T08:22:20;6.90;99.90
53520;DHT22;39397;53.204;5.778;2024-01-30T08:24:45;8.60;99.90
53520;DHT22;39397;53.204;5.778;2024-01-30T08:27:11;9.20;99.90
53520;DHT22;39397;53.204;5.778;2024-01-30T08:29:37;8.80;99.90
53520;DHT22;39397;53.204;5.778;2024-01-30T08:32:05;10.10;99.90
53520;DHT22;39397;53.204;5.778;2024-01-30T08:34:31;8.80;99.90
53520;DHT22;39397;53.204;5.778;2024-01-30T08:36:56;10.60;99.90
53520;DHT22;39397;53.204;5.778;2024-01-30T08:39:22;10.70;99.90
53520;DHT22;39397;53.204;5.778;2024-01-30T08:41:48;9.30;99.90
53520;DHT22;39397;53.204;5.778;2024-01-30T08:44:13;9.10;99.90
53520;DHT22;39397;53.204;5.778;2024-01-30T08:46:39;9.20;99.90
53520;DHT22;39397;53.204;5.778;2024-01-30T08:49:05;9.30;99.90
53520;DHT22;39397;53.204;5.778;2024-01-30T08:51:31;9.10;99.90
53520;DHT22;39397;53.204;5.778;2024-01-30T08:53:56;9.20;99.90
53520;DHT22;39397;53.204;5.778;2024-01-30T08:56:22;9.30;99.90
53520;DHT22;39397;53.204;5.778;2024-01-30T08:58:48;9.80;99.90
53520;DHT22;39397;53.204;5.778;2024-01-30T09:01:14;9.40;99.90
53520;DHT22;39397;53.204;5.778;2024-01-30T09:03:40;9.40;99.90
53520;DHT22;39397;53.204;5.778;2024-01-30T09:06:10;9.30;99.90
53520;DHT22;39397;53.204;5.778;2024-01-30T09:08:36;9.50;99.90
53520;DHT22;39397;53.204;5.778;2024-01-30T09:11:12;9.40;99.90
53520;DHT22;39397;53.204;5.778;2024-01-30T09:13:38;9.40;99.90
53520;DHT22;39397;53.204;5.778;2024-01-30T09:16:04;9.60;99.90
53520;DHT22;39397;53.204;5.778;2024-01-30T09:18:30;9.50;99.90
53520;DHT22;39397;53.204;5.778;2024-01-30T09:20:56;9.60;99.90
53520;DHT22;39397;53.204;5.778;2024-01-30T09:23:22;9.60;99.90
53520;DHT22;39397;53.204;5.778;2024-01-30T09:25:48;9.90;99.90
53520;DHT22;39397;53.204;5.778;2024-01-30T09:28:14;10.00;99.90
53520;DHT22;39397;53.204;5.778;2024-01-30T09:30:40;9.90;99.90
53520;DHT22;39397;53.204;5.778;2024-01-30T09:33:06;10.10;99.90
53520;DHT22;39397;53.204;5.778;2024-01-30T09:35:32;9.60;99.90
53520;DHT22;39397;53.204;5.778;2024-01-30T09:37:59;9.60;99.90
53520;DHT22;39397;53.204;5.778;2024-01-30T09:40:25;9.70;99.90
53520;DHT22;39397;53.204;5.778;2024-01-30T09:42:51;9.60;99.90
53520;DHT22;39397;53.204;5.778;2024-01-30T09:45:24;9.80;99.90
53520;DHT22;39397;53.204;5.778;2024-01-30T09:47:50;9.70;99.90
53520;DHT22;39397;53.204;5.778;2024-01-30T09:50:16;9.70;99.90
53520;DHT22;39397;53.204;5.778;2024-01-30T09:52:46;9.70;99.90
53520;DHT22;39397;53.204;5.778;2024-01-30T09:55:12;9.70;99.90
53520;DHT22;39397;53.204;5.778;2024-01-30T09:57:39;9.90;99.90
53520;DHT22;39397;53.204;5.778;2024-01-30T10:00:06;9.70;99.90
53520;DHT22;39397;53.204;5.778;2024-01-30T10:02:38;9.70;99.90
53520;DHT22;39397;53.204;5.778;2024-01-30T10:05:04;9.70;99.90
53520;DHT22;39397;53.204;5.778;2024-01-30T10:07:31;9.80;99.90
53520;DHT22;39397;53.204;5.778;2024-01-30T10:09:57;9.90;99.90
53520;DHT22;39397;53.204;5.778;2024-01-30T10:12:23;9.80;99.90
53520;DHT22;39397;53.204;5.778;2024-01-30T10:14:51;9.90;99.90
53520;DHT22;39397;53.204;5.778;2024-01-30T10:17:16;9.80;99.90
53520;DHT22;39397;53.204;5.778;2024-01-30T10:19:42;9.70;99.90
53520;DHT22;39397;53.204;5.778;2024-01-30T10:22:09;9.70;99.90
53520;DHT22;39397;53.204;5.778;2024-01-30T10:24:35;9.70;99.90
53520;DHT22;39397;53.204;5.778;2024-01-30T10:27:01;9.70;99.90
53520;DHT22;39397;53.204;5.778;2024-01-30T10:29:27;9.80;99.90
53520;DHT22;39397;53.204;5.778;2024-01-30T10:32:03;9.50;99.90
53520;DHT22;39397;53.204;5.778;2024-01-30T10:34:29;9.60;99.90
53520;DHT22;39397;53.204;5.778;2024-01-30T10:37:09;9.80;99.90
53520;DHT22;39397;53.204;5.778;2024-01-30T10:39:42;10.70;99.90
53520;DHT22;39397;53.204;5.778;2024-01-30T10:42:20;9.40;99.90
53520;DHT22;39397;53.204;5.778;2024-01-30T10:45:02;9.40;99.90
53520;DHT22;39397;53.204;5.778;2024-01-30T10:47:37;9.50;99.90
53520;DHT22;39397;53.204;5.778;2024-01-30T10:50:05;9.40;99.90
53520;DHT22;39397;53.204;5.778;2024-01-30T10:52:32;9.30;99.90
53520;DHT22;39397;53.204;5.778;2024-01-30T10:54:58;9.30;99.90
53520;DHT22;39397;53.204;5.778;2024-01-30T10:57:25;10.30;99.90
53520;DHT22;39397;53.204;5.778;2024-01-30T10:59:53;9.20;99.90
53520;DHT22;39397;53.204;5.778;2024-01-30T11:02:21;9.20;99.90
53520;DHT22;39397;53.204;5.778;2024-01-30T11:04:47;10.30;99.90
53520;DHT22;39397;53.204;5.778;2024-01-30T11:07:17;9.20;99.90
53520;DHT22;39397;53.204;5.778;2024-01-30T11:09:53;9.10;99.90
53520;DHT22;39397;53.204;5.778;2024-01-30T11:12:24;9.10;99.90
53520;DHT22;39397;53.204;5.778;2024-01-30T11:22:47;9.10;99.90
53520;DHT22;39397;53.204;5.778;2024-01-30T11:25:14;9.50;99.90
53520;DHT22;39397;53.204;5.778;2024-01-30T11:27:41;9.10;99.90
53520;DHT22;39397;53.204;5.778;2024-01-30T11:30:08;9.30;99.90
53520;DHT22;39397;53.204;5.778;2024-01-30T11:32:33;9.10;99.90
53520;DHT22;39397;53.204;5.778;2024-01-30T11:34:59;9.00;99.90
53520;DHT22;39397;53.204;5.778;2024-01-30T11:37:25;10.20;99.90
53520;DHT22;39397;53.204;5.778;2024-01-30T11:39:54;9.00;99.90
53520;DHT22;39397;53.204;5.778;2024-01-30T11:42:23;8.90;99.90
53520;DHT22;39397;53.204;5.778;2024-01-30T11:44:50;9.40;99.90
53520;DHT22;39397;53.204;5.778;2024-01-30T11:47:16;9.00;99.90
53520;DHT22;39397;53.204;5.778;2024-01-30T11:49:43;8.90;99.90
53520;DHT22;39397;53.204;5.778;2024-01-30T11:52:09;8.90;99.90
53520;DHT22;39397;53.204;5.778;2024-01-30T11:54:35;9.80;99.90
53520;DHT22;39397;53.204;5.778;2024-01-30T11:57:01;8.80;99.90
53520;DHT22;39397;53.204;5.778;2024-01-30T11:59:27;8.80;99.90
53520;DHT22;39397;53.204;5.778;2024-01-30T12:01:52;9.00;99.90
53520;DHT22;39397;53.204;5.778;2024-01-30T12:04:18;9.70;99.90
53520;DHT22;39397;53.204;5.778;2024-01-30T12:06:44;8.90;99.90
53520;DHT22;39397;53.204;5.778;2024-01-30T12:09:10;9.50;99.90
53520;DHT22;39397;53.204;5.778;2024-01-30T12:11:48;8.90;99.90
53520;DHT22;39397;53.204;5.778;2024-01-30T12:14:17;9.10;99.90
53520;DHT22;39397;53.204;5.778;2024-01-30T12:16:48;8.80;99.90
53520;DHT22;39397;53.204;5.778;2024-01-30T12:19:24;8.80;99.90
53520;DHT22;39397;53.204;5.778;2024-01-30T12:21:57;8.90;99.90
53520;DHT22;39397;53.204;5.778;2024-01-30T12:24:27;8.80;99.90
53520;DHT22;39397;53.204;5.778;2024-01-30T12:26:59;7.80;99.90
53520;DHT22;39397;53.204;5.778;2024-01-30T12:29:24;7.10;99.90
53520;DHT22;39397;53.204;5.778;2024-01-30T12:31:53;8.80;99.90
53520;DHT22;39397;53.204;5.778;2024-01-30T12:34:19;8.90;99.90
53520;DHT22;39397;53.204;5.778;2024-01-30T12:36:47;8.90;99.90
53520;DHT22;39397;53.204;5.778;2024-01-30T12:39:15;9.00;99.90
53520;DHT22;39397;53.204;5.778;2024-01-30T12:41:47;9.10;99.90
53520;DHT22;39397;53.204;5.778;2024-01-30T12:44:14;9.30;99.90
53520;DHT22;39397;53.204;5.778;2024-01-30T12:46:39;8.90;99.90
53520;DHT22;39397;53.204;5.778;2024-01-30T12:49:05;9.00;99.90
53520;DHT22;39397;53.204;5.778;2024-01-30T12:51:34;9.30;99.90
53520;DHT22;39397;53.204;5.778;2024-01-30T12:54:05;8.90;99.90
53520;DHT22;39397;53.204;5.778;2024-01-30T12:56:30;8.80;99.90
53520;DHT22;39397;53.204;5.778;2024-01-30T12:58:56;8.80;99.90
53520;DHT22;39397;53.204;5.778;2024-01-30T13:01:22;9.10;99.90
53520;DHT22;39397;53.204;5.778;2024-01-30T13:03:48;8.80;99.90
53520;DHT22;39397;53.204;5.778;2024-01-30T13:06:14;9.60;99.90
53520;DHT22;39397;53.204;5.778;2024-01-30T13:08:40;8.60;99.90
53520;DHT22;39397;53.204;5.778;2024-01-30T13:11:05;6.80;99.90
53520;DHT22;39397;53.204;5.778;2024-01-30T13:13:31;9.20;99.90
53520;DHT22;39397;53.204;5.778;2024-01-30T13:15:57;9.50;99.90
53520;DHT22;39397;53.204;5.778;2024-01-30T13:18:23;9.80;99.90
53520;DHT22;39397;53.204;5.778;2024-01-30T13:20:49;8.70;99.90
53520;DHT22;39397;53.204;5.778;2024-01-30T13:23:14;9.20;99.90
53520;DHT22;39397;53.204;5.778;2024-01-30T13:25:40;9.50;99.90
53520;DHT22;39397;53.204;5.778;2024-01-30T13:28:06;9.90;99.90
53520;DHT22;39397;53.204;5.778;2024-01-30T13:30:32;8.80;99.90
53520;DHT22;39397;53.204;5.778;2024-01-30T13:32:57;9.10;99.90
53520;DHT22;39397;53.204;5.778;2024-01-30T13:35:23;8.80;99.90
53520;DHT22;39397;53.204;5.778;2024-01-30T13:37:49;8.70;99.90
53520;DHT22;39397;53.204;5.778;2024-01-30T13:40:15;8.60;99.90
53520;DHT22;39397;53.204;5.778;2024-01-30T13:42:41;8.60;99.90
53520;DHT22;39397;53.204;5.778;2024-01-30T13:45:08;8.50;99.90
53520;DHT22;39397;53.204;5.778;2024-01-30T13:47:35;8.60;99.90
53520;DHT22;39397;53.204;5.778;2024-01-30T13:50:01;8.50;99.90
53520;DHT22;39397;53.204;5.778;2024-01-30T13:52:26;8.50;99.90
53520;DHT22;39397;53.204;5.778;2024-01-30T13:54:52;9.10;99.90
53520;DHT22;39397;53.204;5.778;2024-01-30T13:57:18;8.50;99.90
53520;DHT22;39397;53.204;5.778;2024-01-30T13:59:44;8.30;99.90
53520;DHT22;39397;53.204;5.778;2024-01-30T14:02:10;8.80;99.90
53520;DHT22;39397;53.204;5.778;2024-01-30T14:04:36;8.50;99.90
53520;DHT22;39397;53.204;5.778;2024-01-30T14:07:03;8.60;99.90
53520;DHT22;39397;53.204;5.778;2024-01-30T14:09:29;8.40;99.90
53520;DHT22;39397;53.204;5.778;2024-01-30T14:11:55;8.50;99.90
53520;DHT22;39397;53.204;5.778;2024-01-30T14:14:21;8.80;99.90
53520;DHT22;39397;53.204;5.778;2024-01-30T14:16:46;8.50;99.90
53520;DHT22;39397;53.204;5.778;2024-01-30T14:19:12;8.50;99.90
53520;DHT22;39397;53.204;5.778;2024-01-30T14:21:38;8.40;99.90
53520;DHT22;39397;53.204;5.778;2024-01-30T14:24:04;8.40;99.90
53520;DHT22;39397;53.204;5.778;2024-01-30T14:26:29;8.80;99.90
53520;DHT22;39397;53.204;5.778;2024-01-30T14:28:55;9.00;99.90
53520;DHT22;39397;53.204;5.778;2024-01-30T14:31:21;9.20;99.90
53520;DHT22;39397;53.204;5.778;2024-01-30T14:33:50;8.50;99.90
53520;DHT22;39397;53.204;5.778;2024-01-30T14:36:16;8.40;99.90
53520;DHT22;39397;53.204;5.778;2024-01-30T14:38:42;10.40;99.90
53520;DHT22;39397;53.204;5.778;2024-01-30T14:41:07;8.60;99.90
53520;DHT22;39397;53.204;5.778;2024-01-30T14:43:33;8.80;99.90
53520;DHT22;39397;53.204;5.778;2024-01-30T14:45:59;8.60;99.90
53520;DHT22;39397;53.204;5.778;2024-01-30T14:48:25;8.80;99.90
53520;DHT22;39397;53.204;5.778;2024-01-30T14:50:50;8.40;99.90
53520;DHT22;39397;53.204;5.778;2024-01-30T14:53:16;8.60;99.90
53520;DHT22;39397;53.204;5.778;2024-01-30T14:55:42;8.60;99.90
53520;DHT22;39397;53.204;5.778;2024-01-30T14:58:07;8.40;99.90
53520;DHT22;39397;53.204;5.778;2024-01-30T15:00:33;8.50;99.90
53520;DHT22;39397;53.204;5.778;2024-01-30T15:02:59;8.30;99.90
53520;DHT22;39397;53.204;5.778;2024-01-30T15:05:25;8.20;99.90
53520;DHT22;39397;53.204;5.778;2024-01-30T15:07:50;8.50;99.90
53520;DHT22;39397;53.204;5.778;2024-01-30T15:10:16;8.30;99.90
53520;DHT22;39397;53.204;5.778;2024-01-30T15:12:42;8.20;99.90
53520;DHT22;39397;53.204;5.778;2024-01-30T15:15:08;8.20;99.90
53520;DHT22;39397;53.204;5.778;2024-01-30T15:17:34;8.60;99.90
53520;DHT22;39397;53.204;5.778;2024-01-30T15:20:00;8.20;99.90
53520;DHT22;39397;53.204;5.778;2024-01-30T15:22:26;8.10;99.90
53520;DHT22;39397;53.204;5.778;2024-01-30T15:24:51;8.50;99.90
53520;DHT22;39397;53.204;5.778;2024-01-30T15:27:17;7.90;99.90
53520;DHT22;39397;53.204;5.778;2024-01-30T15:29:45;9.80;99.90
53520;DHT22;39397;53.204;5.778;2024-01-30T15:32:11;7.90;99.90
53520;DHT22;39397;53.204;5.778;2024-01-30T15:34:36;8.10;99.90
53520;DHT22;39397;53.204;5.778;2024-01-30T15:37:02;8.50;99.90
53520;DHT22;39397;53.204;5.778;2024-01-30T15:39:29;7.80;99.90
53520;DHT22;39397;53.204;5.778;2024-01-30T15:41:54;8.90;99.90
53520;DHT22;39397;53.204;5.778;2024-01-30T15:44:20;7.70;99.90
53520;DHT22;39397;53.204;5.778;2024-01-30T15:46:46;7.70;99.90
53520;DHT22;39397;53.204;5.778;2024-01-30T15:49:12;8.10;99.90